Ternholm — OWIM2 — position and weather

sailwx.info

Track history (hours):
 
Tides and Currents Weather Stations Pressure Air Temp Water Temp Dewpoint Dewpoint Depression Visibility Wind Speed Wind Dir Waves Ship Positions

Ternholm

Last reported at 2014-Nov-18 13:09 UTC. Time now 2014-Nov-22 03:02 UTC.
Position N 55°57' E 016°28'.

Length 141 m; draft 8.5 m.

Type: Ship (hazmat cat C). MMSI: 219076000.

Date/timePositionNaut miles runAvg speedWind from/ knotsBaromVisibWave heightAir tempDewpointWater temp
2014-Nov-18 13:09N 55°57' E 016°28'3511.7
2014-Nov-18 10:10N 55°41' E 015°33'711.7
2014-Nov-18 09:33N 55°37' E 015°22'1211.6
2014-Nov-18 08:33N 55°32' E 015°03'1211.8
2014-Nov-18 07:33N 55°26' E 014°45'1111.0
2014-Nov-18 06:33N 55°19' E 014°32'1211.6
2014-Nov-18 05:33N 55°09' E 014°19'1111.3
2014-Nov-18 04:33N 55°01' E 014°06'6011.6
2014-Nov-17 23:23N 54°39' E 012°29'1011.6
2014-Nov-17 22:33N 54°33' E 012°16'1110.1
2014-Nov-17 21:30N 54°25' E 012°04'1111.8
2014-Nov-17 20:33N 54°25' E 011°44'165 8.7
2014-Nov-17 01:33N 57°11' E 011°35'10 9.7
2014-Nov-17 00:33N 57°20' E 011°29'9 9.2
2014-Nov-16 23:33N 57°29' E 011°29'1111.4
2014-Nov-16 22:33N 57°38' E 011°42'7 6.4
2014-Nov-16 21:31N 57°41' E 011°53'0 0.0
2014-Nov-16 20:31N 57°41' E 011°53'0 0.0
2014-Nov-16 19:31N 57°41' E 011°53'0 0.0
2014-Nov-16 18:31N 57°41' E 011°53'0 0.0
2014-Nov-16 17:31N 57°41' E 011°53'0 0.0
2014-Nov-16 16:31N 57°41' E 011°53'0 0.0
2014-Nov-16 15:31N 57°41' E 011°53'0 0.0
2014-Nov-16 14:31N 57°41' E 011°53'0 0.0
2014-Nov-16 13:31N 57°41' E 011°53'0 0.0
2014-Nov-16 12:31N 57°41' E 011°53'0 0.0
2014-Nov-16 11:31N 57°41' E 011°53'0 0.0
2014-Nov-16 10:31N 57°41' E 011°53'0 0.0
2014-Nov-16 09:31N 57°41' E 011°53'0 0.0
2014-Nov-16 08:31N 57°41' E 011°53'0 0.0
2014-Nov-16 07:31N 57°41' E 011°53'0 0.0
2014-Nov-16 06:31N 57°41' E 011°53'0 0.0
2014-Nov-16 05:31N 57°41' E 011°53'0 0.0
2014-Nov-16 04:31N 57°41' E 011°53'0 0.0
2014-Nov-16 03:31N 57°41' E 011°53'0 0.0
2014-Nov-16 02:31N 57°41' E 011°53'0 0.0
2014-Nov-16 01:31N 57°41' E 011°53'0 0.0
2014-Nov-16 00:31N 57°41' E 011°53'0 0.0
2014-Nov-15 23:31N 57°41' E 011°53'0 0.0
2014-Nov-15 22:31N 57°41' E 011°53'0 0.0
2014-Nov-15 21:31N 57°41' E 011°53'0 0.0
2014-Nov-15 20:31N 57°41' E 011°53'0 0.0
2014-Nov-15 19:31N 57°41' E 011°53'0 0.0
2014-Nov-15 18:31N 57°41' E 011°53'4 4.6
2014-Nov-15 17:34N 57°39' E 011°45'1111.2
2014-Nov-15 16:34N 57°29' E 011°38'1211.8
2014-Nov-15 15:34N 57°18' E 011°48'1211.7
2014-Nov-15 14:33N 57°08' E 011°58'3911.5
2014-Nov-15 11:10N 56°30' E 012°15'711.7
2014-Nov-15 10:34N 56°23' E 012°17'1212.4
2014-Nov-15 09:33N 56°11' E 012°25'1514.5
2014-Nov-15 08:33N 55°60' E 012°41'1212.0
2014-Nov-15 07:34N 55°48' E 012°43'1211.6
2014-Nov-15 06:34N 55°36' E 012°42'1010.0
2014-Nov-15 05:33N 55°26' E 012°42'9 9.3
2014-Nov-15 04:33N 55°17' E 012°46'1111.3
2014-Nov-15 03:34N 55°15' E 013°06'1211.5
2014-Nov-15 02:32N 55°15' E 013°26'2611.6
2014-Nov-15 00:20N 55°13' E 014°11'910.8
2014-Nov-14 23:29N 55°19' E 014°24'1211.4
2014-Nov-14 22:26N 55°28' E 014°38'1111.6
2014-Nov-14 21:31N 55°33' E 014°54'1511.4
2014-Nov-14 20:10N 55°41' E 015°18'711.4
2014-Nov-14 19:32N 55°44' E 015°29'2511.4
2014-Nov-14 17:20N 55°57' E 016°08'911.4
2014-Nov-14 16:33N 56°01' E 016°22'6610.9
2014-Nov-14 10:33N 56°58' E 017°20'1414.1
2014-Nov-14 09:31N 57°12' E 017°28'1311.9
2014-Nov-14 08:26N 57°24' E 017°38'18310.0
2014-Nov-13 14:09N 60°22' E 018°60'  
2014-Nov-09 04:32N 55°56' E 016°24'2311.4
2014-Nov-09 02:29N 55°45' E 015°47'1111.4
2014-Nov-09 01:33N 55°40' E 015°31'1211.4
2014-Nov-09 00:32N 55°34' E 015°13'1111.4
2014-Nov-08 23:33N 55°29' E 014°55'1111.4
2014-Nov-08 22:33N 55°23' E 014°38'1111.5
2014-Nov-08 21:33N 55°13' E 014°26'1111.4
2014-Nov-08 20:33N 55°04' E 014°14'6711.2
2014-Nov-08 14:32N 54°38' E 012°26'1110.7
2014-Nov-08 13:31N 54°30' E 012°14'  
Track history (hours):
 
Tides and Currents Weather Stations Pressure Air Temp Water Temp Dewpoint Dewpoint Depression Visibility Wind Speed Wind Dir Waves Ship Positions

Ternholm

Last reported at 2014-Nov-18 13:09 UTC. Time now 2014-Nov-22 03:02 UTC.
Position N 55°57' E 016°28'.

Length 141 m; draft 8.5 m.

Type: Ship (hazmat cat C). MMSI: 219076000.

Date/timePositionNaut miles runAvg speedWind from/ knotsBaromVisibWave heightAir tempDewpointWater temp
2014-Nov-18 13:09N 55°57' E 016°28'3511.7
2014-Nov-18 10:10N 55°41' E 015°33'711.7
2014-Nov-18 09:33N 55°37' E 015°22'1211.6
2014-Nov-18 08:33N 55°32' E 015°03'1211.8
2014-Nov-18 07:33N 55°26' E 014°45'1111.0
2014-Nov-18 06:33N 55°19' E 014°32'1211.6
2014-Nov-18 05:33N 55°09' E 014°19'1111.3
2014-Nov-18 04:33N 55°01' E 014°06'6011.6
2014-Nov-17 23:23N 54°39' E 012°29'1011.6
2014-Nov-17 22:33N 54°33' E 012°16'1110.1
2014-Nov-17 21:30N 54°25' E 012°04'1111.8
2014-Nov-17 20:33N 54°25' E 011°44'165 8.7
2014-Nov-17 01:33N 57°11' E 011°35'10 9.7
2014-Nov-17 00:33N 57°20' E 011°29'9 9.2
2014-Nov-16 23:33N 57°29' E 011°29'1111.4
2014-Nov-16 22:33N 57°38' E 011°42'7 6.4
2014-Nov-16 21:31N 57°41' E 011°53'0 0.0
2014-Nov-16 20:31N 57°41' E 011°53'0 0.0
2014-Nov-16 19:31N 57°41' E 011°53'0 0.0
2014-Nov-16 18:31N 57°41' E 011°53'0 0.0
2014-Nov-16 17:31N 57°41' E 011°53'0 0.0
2014-Nov-16 16:31N 57°41' E 011°53'0 0.0
2014-Nov-16 15:31N 57°41' E 011°53'0 0.0
2014-Nov-16 14:31N 57°41' E 011°53'0 0.0
2014-Nov-16 13:31N 57°41' E 011°53'0 0.0
2014-Nov-16 12:31N 57°41' E 011°53'0 0.0
2014-Nov-16 11:31N 57°41' E 011°53'0 0.0
2014-Nov-16 10:31N 57°41' E 011°53'0 0.0
2014-Nov-16 09:31N 57°41' E 011°53'0 0.0
2014-Nov-16 08:31N 57°41' E 011°53'0 0.0
2014-Nov-16 07:31N 57°41' E 011°53'0 0.0
2014-Nov-16 06:31N 57°41' E 011°53'0 0.0
2014-Nov-16 05:31N 57°41' E 011°53'0 0.0
2014-Nov-16 04:31N 57°41' E 011°53'0 0.0
2014-Nov-16 03:31N 57°41' E 011°53'0 0.0
2014-Nov-16 02:31N 57°41' E 011°53'0 0.0
2014-Nov-16 01:31N 57°41' E 011°53'0 0.0
2014-Nov-16 00:31N 57°41' E 011°53'0 0.0
2014-Nov-15 23:31N 57°41' E 011°53'0 0.0
2014-Nov-15 22:31N 57°41' E 011°53'0 0.0
2014-Nov-15 21:31N 57°41' E 011°53'0 0.0
2014-Nov-15 20:31N 57°41' E 011°53'0 0.0
2014-Nov-15 19:31N 57°41' E 011°53'0 0.0
2014-Nov-15 18:31N 57°41' E 011°53'4 4.6
2014-Nov-15 17:34N 57°39' E 011°45'1111.2
2014-Nov-15 16:34N 57°29' E 011°38'1211.8
2014-Nov-15 15:34N 57°18' E 011°48'1211.7
2014-Nov-15 14:33N 57°08' E 011°58'3911.5
2014-Nov-15 11:10N 56°30' E 012°15'711.7
2014-Nov-15 10:34N 56°23' E 012°17'1212.4
2014-Nov-15 09:33N 56°11' E 012°25'1514.5
2014-Nov-15 08:33N 55°60' E 012°41'1212.0
2014-Nov-15 07:34N 55°48' E 012°43'1211.6
2014-Nov-15 06:34N 55°36' E 012°42'1010.0
2014-Nov-15 05:33N 55°26' E 012°42'9 9.3
2014-Nov-15 04:33N 55°17' E 012°46'1111.3
2014-Nov-15 03:34N 55°15' E 013°06'1211.5
2014-Nov-15 02:32N 55°15' E 013°26'2611.6
2014-Nov-15 00:20N 55°13' E 014°11'910.8
2014-Nov-14 23:29N 55°19' E 014°24'1211.4
2014-Nov-14 22:26N 55°28' E 014°38'1111.6
2014-Nov-14 21:31N 55°33' E 014°54'1511.4
2014-Nov-14 20:10N 55°41' E 015°18'711.4
2014-Nov-14 19:32N 55°44' E 015°29'2511.4
2014-Nov-14 17:20N 55°57' E 016°08'911.4
2014-Nov-14 16:33N 56°01' E 016°22'6610.9
2014-Nov-14 10:33N 56°58' E 017°20'1414.1
2014-Nov-14 09:31N 57°12' E 017°28'1311.9
2014-Nov-14 08:26N 57°24' E 017°38'18310.0
2014-Nov-13 14:09N 60°22' E 018°60'  
2014-Nov-09 04:32N 55°56' E 016°24'2311.4
2014-Nov-09 02:29N 55°45' E 015°47'1111.4
2014-Nov-09 01:33N 55°40' E 015°31'1211.4
2014-Nov-09 00:32N 55°34' E 015°13'1111.4
2014-Nov-08 23:33N 55°29' E 014°55'1111.4
2014-Nov-08 22:33N 55°23' E 014°38'1111.5
2014-Nov-08 21:33N 55°13' E 014°26'1111.4
2014-Nov-08 20:33N 55°04' E 014°14'6711.2
2014-Nov-08 14:32N 54°38' E 012°26'1110.7
2014-Nov-08 13:31N 54°30' E 012°14'  

Dump ship's entire track history